Time;durP1;ratioP1;P1;durP2;ratioP2;P2;SDS_P1;SDS_P2;PMS_P1;PMS_P2;Temp;Humidity;BMP_temperature;BMP_pressure;BME280_temperature;BME280_humidity;BME280_pressure;Samples;Min_cycle;Max_cycle;Signal;HPM_P1;HPM_P2
2022/01/17 00:01:16;;;;;;;0.20;0.20;;;;;;;18.83;40.04;102609.53;5126285;27;20039;-33
2022/01/17 00:03:42;;;;;;;0.30;0.30;;;;;;;18.84;39.94;102614.81;5117896;27;20097;-33
2022/01/17 00:06:07;;;;;;;0.28;0.28;;;;;;;18.83;40.04;102612.28;5123458;28;20051;-33
2022/01/17 00:08:33;;;;;;;0.25;0.25;;;;;;;18.82;40.21;102613.34;5102753;27;20130;-33
2022/01/17 00:11:00;;;;;;;0.20;0.20;;;;;;;18.83;39.99;102634.38;5118719;28;20051;-33
2022/01/17 00:13:29;;;;;;;0.30;0.30;;;;;;;18.83;40.15;102637.13;5121645;27;20050;-33
2022/01/17 00:16:07;;;;;;;0.20;0.20;;;;;;;18.82;40.09;102630.75;5129458;27;20577;-32
2022/01/17 00:21:05;;;;;;;0.30;0.30;;;;;;;18.80;40.12;102650.31;5123308;27;20443;-32
2022/01/17 00:23:31;;;;;;;0.20;0.20;;;;;;;18.82;40.22;102650.06;5117921;27;20475;-35
2022/01/17 00:25:57;;;;;;;0.30;0.30;;;;;;;18.82;40.09;102658.34;5127250;27;20099;-33
2022/01/17 00:28:23;;;;;;;0.30;0.30;;;;;;;18.82;40.01;102661.09;5106441;28;20235;-35
2022/01/17 00:30:48;;;;;;;0.30;0.30;;;;;;;18.80;40.06;102658.59;5119804;27;20079;-32
2022/01/17 00:33:14;;;;;;;0.20;0.20;;;;;;;18.82;40.16;102654.75;5101966;28;20218;-34
2022/01/17 00:35:40;;;;;;;0.30;0.30;;;;;;;18.82;40.07;102661.09;5117029;28;20732;-32
2022/01/17 00:38:07;;;;;;;0.28;0.28;;;;;;;18.83;40.08;102664.75;5115947;27;20040;-33
2022/01/17 00:40:33;;;;;;;0.20;0.20;;;;;;;18.81;40.01;102664.94;5124320;27;20539;-33
2022/01/17 00:42:59;;;;;;;0.20;0.20;;;;;;;18.82;40.21;102663.88;5119082;27;20042;-33
2022/01/17 00:45:27;;;;;;;0.30;0.30;;;;;;;18.80;40.22;102663.28;5120579;27;20398;-32
2022/01/17 00:47:55;;;;;;;0.25;0.25;;;;;;;18.80;40.17;102672.41;5122316;27;20045;-33
2022/01/17 00:50:23;;;;;;;0.20;0.20;;;;;;;18.82;40.15;102671.31;5122591;28;20043;-34
2022/01/17 00:52:48;;;;;;;0.20;0.20;;;;;;;18.82;40.10;102665.78;5126833;27;20275;-33
2022/01/17 00:55:14;;;;;;;0.30;0.30;;;;;;;18.80;40.05;102663.28;5118550;27;20043;-32
2022/01/17 00:57:40;;;;;;;0.20;0.20;;;;;;;18.81;40.14;102662.19;5122476;27;20047;-32
2022/01/17 01:00:07;;;;;;;0.30;0.30;;;;;;;18.81;40.25;102662.19;5118425;27;20043;-32
2022/01/17 01:02:33;;;;;;;0.20;0.20;;;;;;;18.80;40.06;102655.84;5099965;27;20998;-33
2022/01/17 01:04:59;;;;;;;0.20;0.20;;;;;;;18.81;40.08;102645.63;5121984;27;20048;-35
2022/01/17 01:07:24;;;;;;;0.30;0.30;;;;;;;18.80;39.94;102655.00;5126639;27;20064;-32
2022/01/17 01:10:02;;;;;;;0.30;0.30;;;;;;;18.82;40.09;102657.50;5123387;27;20070;-32
2022/01/17 01:12:28;;;;;;;0.20;0.20;;;;;;;18.82;40.04;102663.03;5122415;27;20043;-32
2022/01/17 01:14:55;;;;;;;0.20;0.20;;;;;;;18.81;40.23;102667.72;5128220;27;20075;-33
2022/01/17 01:17:47;;;;;;;0.30;0.30;;;;;;;18.80;40.14;102685.34;5101174;28;20424;-32
2022/01/17 01:20:19;;;;;;;0.30;0.30;;;;;;;18.81;40.26;102698.06;5103565;27;20089;-33
2022/01/17 01:28:17;;;;;;;0.20;0.20;;;;;;;18.80;40.27;102677.06;5104804;28;20490;-33
2022/01/17 01:30:47;;;;;;;0.30;0.30;;;;;;;18.81;40.29;102684.28;5120643;27;20490;-34
2022/01/17 01:33:19;;;;;;;0.30;0.30;;;;;;;18.78;40.16;102671.81;5117903;27;20043;-32
2022/01/17 01:35:46;;;;;;;0.30;0.30;;;;;;;18.79;40.03;102659.69;5116203;27;20043;-34
2022/01/17 01:38:12;;;;;;;0.20;0.20;;;;;;;18.80;40.15;102664.13;5114303;28;20103;-33
2022/01/17 01:40:38;;;;;;;0.20;0.20;;;;;;;18.78;40.02;102655.25;5104428;27;20286;-32
2022/01/17 01:43:04;;;;;;;0.20;0.20;;;;;;;18.79;40.07;102658.84;5125464;27;20438;-32
2022/01/17 01:45:30;;;;;;;0.30;0.30;;;;;;;18.80;40.20;102657.75;5123785;27;20051;-32
2022/01/17 01:47:56;;;;;;;0.25;0.25;;;;;;;18.80;40.29;102664.13;5113626;27;20065;-32
2022/01/17 01:50:22;;;;;;;0.20;0.20;;;;;;;18.81;40.20;102664.94;5100947;28;20059;-32
2022/01/17 01:52:48;;;;;;;0.20;0.20;;;;;;;18.79;40.14;102670.72;5116134;27;20474;-32
2022/01/17 01:55:16;;;;;;;0.20;0.20;;;;;;;18.80;40.01;102671.56;5103459;28;20103;-32
2022/01/17 01:57:43;;;;;;;0.20;0.20;;;;;;;18.79;40.15;102679.00;5100382;28;20057;-32
2022/01/17 02:00:10;;;;;;;0.20;0.20;;;;;;;18.80;40.17;102693.63;5102045;28;20087;-32
2022/01/17 02:02:36;;;;;;;0.20;0.20;;;;;;;18.80;40.03;102701.91;5116336;27;20048;-32
2022/01/17 02:05:03;;;;;;;0.20;0.20;;;;;;;18.80;40.00;102704.69;5115196;27;20074;-33
2022/01/17 02:07:29;;;;;;;0.22;0.22;;;;;;;18.79;40.10;102692.81;5119074;27;20112;-33
2022/01/17 02:09:56;;;;;;;0.20;0.20;;;;;;;18.81;40.00;102687.03;5116698;27;20470;-34
2022/01/17 02:12:22;;;;;;;0.30;0.30;;;;;;;18.78;39.90;102679.22;5119391;27;20401;-32
2022/01/17 02:14:50;;;;;;;0.28;0.28;;;;;;;18.78;40.12;102671.81;5106515;27;20062;-33
2022/01/17 02:17:16;;;;;;;0.20;0.20;;;;;;;18.78;40.29;102674.56;5116366;27;20058;-33
2022/01/17 02:19:46;;;;;;;0.30;0.30;;;;;;;18.79;40.00;102669.88;5100281;28;20046;-32
2022/01/17 02:22:13;;;;;;;0.20;0.20;;;;;;;18.80;40.20;102679.84;5117573;27;20044;-33
2022/01/17 02:24:39;;;;;;;0.20;0.20;;;;;;;18.79;40.12;102672.66;5103696;28;21446;-35
2022/01/17 02:27:05;;;;;;;0.30;0.30;;;;;;;18.80;40.20;102685.34;5120884;28;20287;-33
2022/01/17 02:29:30;;;;;;;0.30;0.30;;;;;;;18.78;40.11;102680.09;5117549;27;20169;-33
2022/01/17 02:31:56;;;;;;;0.30;0.30;;;;;;;18.79;40.06;102667.13;5127308;27;20470;-36
2022/01/17 02:34:21;;;;;;;0.30;0.30;;;;;;;18.78;40.13;102665.41;5099618;28;20394;-32
2022/01/17 02:36:47;;;;;;;0.30;0.30;;;;;;;18.78;40.31;102671.81;5118620;27;20416;-32
2022/01/17 02:39:14;;;;;;;0.30;0.30;;;;;;;18.79;40.17;102675.41;5120333;27;20070;-33
2022/01/17 02:41:40;;;;;;;0.30;0.30;;;;;;;18.80;40.04;102666.03;5102201;27;20044;-33
2022/01/17 02:44:07;;;;;;;0.20;0.20;;;;;;;18.78;40.27;102658.00;5116461;27;20040;-33
2022/01/17 02:46:33;;;;;;;0.20;0.20;;;;;;;18.79;40.21;102665.19;5101895;27;20489;-33
2022/01/17 02:49:01;;;;;;;0.20;0.20;;;;;;;18.78;40.33;102670.94;5126557;27;20035;-36
2022/01/17 02:51:27;;;;;;;0.40;0.40;;;;;;;18.78;40.22;102677.31;5098959;27;20043;-34
2022/01/17 02:53:53;;;;;;;0.30;0.30;;;;;;;18.80;40.24;102690.88;5098224;28;20070;-33
2022/01/17 02:56:19;;;;;;;0.30;0.30;;;;;;;18.78;40.02;102674.56;5121289;27;20530;-32
2022/01/17 02:58:45;;;;;;;0.20;0.20;;;;;;;18.78;40.21;102679.22;5113898;27;20092;-33
2022/01/17 03:01:14;;;;;;;0.20;0.20;;;;;;;18.77;40.38;102672.84;5115635;27;20109;-40
2022/01/17 03:03:41;;;;;;;0.20;0.20;;;;;;;18.78;40.15;102669.03;5109913;27;20089;-32
2022/01/17 03:06:08;;;;;;;0.20;0.20;;;;;;;18.79;40.07;102669.88;5104464;28;20383;-33
2022/01/17 03:08:34;;;;;;;0.20;0.20;;;;;;;18.79;40.30;102669.88;5123443;27;20279;-33
2022/01/17 03:11:05;;;;;;;0.30;0.30;;;;;;;18.79;40.05;102653.31;5102021;28;20039;-35
2022/01/17 03:13:33;;;;;;;0.20;0.20;;;;;;;18.79;40.28;102656.91;5112607;27;20043;-38
2022/01/17 03:16:01;;;;;;;0.20;0.20;;;;;;;18.78;40.13;102649.72;5106981;27;20469;-35
2022/01/17 03:18:31;;;;;;;0.20;0.20;;;;;;;18.80;40.13;102641.19;5106292;27;20043;-33
2022/01/17 03:20:57;;;;;;;0.30;0.30;;;;;;;18.78;40.12;102646.09;5121261;27;20073;-34
2022/01/17 03:23:23;;;;;;;0.20;0.20;;;;;;;18.79;40.26;102658.84;5130825;27;20480;-33
2022/01/17 03:25:49;;;;;;;0.20;0.20;;;;;;;18.78;40.31;102658.00;5122896;27;20043;-36
2022/01/17 03:28:15;;;;;;;0.30;0.30;;;;;;;18.79;40.15;102670.72;5119656;27;20047;-36
2022/01/17 03:30:41;;;;;;;0.20;0.20;;;;;;;18.79;40.29;102678.16;5103708;27;20047;-32
2022/01/17 03:33:08;;;;;;;0.20;0.20;;;;;;;18.78;40.10;102674.56;5122233;27;20516;-35
2022/01/17 03:35:38;;;;;;;0.20;0.20;;;;;;;18.78;40.28;102673.69;5125865;27;20363;-38
2022/01/17 03:38:06;;;;;;;0.20;0.20;;;;;;;18.78;40.19;102670.94;5106148;28;20099;-33
2022/01/17 03:40:32;;;;;;;0.30;0.30;;;;;;;18.79;40.06;102667.13;5104318;27;20123;-33
2022/01/17 03:42:58;;;;;;;0.20;0.20;;;;;;;18.78;40.17;102670.94;5105845;28;20096;-32
2022/01/17 03:45:23;;;;;;;0.20;0.20;;;;;;;18.78;40.28;102663.53;5127146;27;20043;-32
2022/01/17 03:47:49;;;;;;;0.20;0.20;;;;;;;18.78;40.23;102677.31;5101079;28;20040;-33
2022/01/17 03:50:17;;;;;;;0.20;0.20;;;;;;;18.79;40.10;102679.00;5104481;28;20039;-32
2022/01/17 03:52:43;;;;;;;0.20;0.20;;;;;;;18.79;40.31;102675.41;5123892;27;20053;-33
2022/01/17 03:55:10;;;;;;;0.20;0.20;;;;;;;18.79;40.32;102683.69;5106506;28;20059;-33
2022/01/17 03:57:36;;;;;;;0.20;0.20;;;;;;;18.79;40.06;102672.66;5105791;28;20126;-32
2022/01/17 04:00:05;;;;;;;0.30;0.30;;;;;;;18.79;40.44;102687.28;5098854;28;20050;-33
2022/01/17 04:02:31;;;;;;;0.28;0.28;;;;;;;18.78;40.25;102681.97;5102346;27;20091;-32
2022/01/17 04:04:57;;;;;;;0.20;0.20;;;;;;;18.79;40.33;102675.41;5123051;27;20039;-33
2022/01/17 04:07:22;;;;;;;0.30;0.30;;;;;;;18.79;40.37;102686.44;5120382;27;20066;-33
2022/01/17 04:09:48;;;;;;;0.20;0.20;;;;;;;18.77;40.39;102688.59;5120374;27;20039;-34
2022/01/17 04:12:14;;;;;;;0.20;0.20;;;;;;;18.79;40.33;102691.97;5106542;27;20043;-35
2022/01/17 04:14:39;;;;;;;0.20;0.20;;;;;;;18.77;40.17;102692.19;5123293;27;20055;-33
2022/01/17 04:17:06;;;;;;;0.20;0.20;;;;;;;18.78;40.16;102691.13;5120655;27;20480;-33
2022/01/17 04:19:33;;;;;;;0.30;0.30;;;;;;;18.78;40.10;102681.97;5117367;27;20039;-33
2022/01/17 04:21:59;;;;;;;0.30;0.30;;;;;;;18.78;40.15;102691.13;5122332;27;20044;-34
2022/01/17 04:24:25;;;;;;;0.20;0.20;;;;;;;18.80;40.05;102693.63;5116669;27;20046;-33
2022/01/17 04:26:50;;;;;;;0.22;0.22;;;;;;;18.78;40.27;102693.88;5122620;27;20102;-32
2022/01/17 04:29:16;;;;;;;0.20;0.20;;;;;;;18.80;40.19;102708.28;5087986;28;20305;-33
2022/01/17 04:31:42;;;;;;;0.20;0.20;;;;;;;18.80;40.32;102710.19;5118664;27;20083;-32
2022/01/17 04:34:08;;;;;;;0.30;0.30;;;;;;;18.79;40.32;102708.53;5129046;27;20042;-32
2022/01/17 04:36:33;;;;;;;0.25;0.25;;;;;;;18.79;40.17;102717.66;5132771;27;20047;-33
2022/01/17 04:38:59;;;;;;;0.20;0.20;;;;;;;18.78;40.33;102712.34;5119994;27;20087;-32
2022/01/17 04:41:36;;;;;;;0.25;0.25;;;;;;;18.79;40.39;102714.03;5121765;27;20050;-32
2022/01/17 04:45:07;;;;;;;0.30;0.30;;;;;;;18.78;40.29;102718.72;5113603;27;20048;-33
2022/01/17 04:46:47;;;;;;;0.30;0.30;;;;;;;18.77;40.38;102707.91;5102237;28;20470;-38
2022/01/17 04:49:13;;;;;;;0.30;0.30;;;;;;;18.79;40.30;102709.38;5117772;27;20047;-34
2022/01/17 04:51:39;;;;;;;0.20;0.20;;;;;;;18.78;40.33;102707.69;5103205;27;20416;-33
2022/01/17 04:54:39;;;;;;;0.30;0.30;;;;;;;18.78;40.40;102715.09;5121531;27;20039;-36
2022/01/17 04:56:50;;;;;;;0.30;0.30;;;;;;;18.78;40.41;102710.44;5098875;28;20113;-36
2022/01/17 04:59:16;;;;;;;0.30;0.30;;;;;;;18.79;40.37;102714.03;5117065;27;20039;-32
2022/01/17 05:01:42;;;;;;;0.20;0.20;;;;;;;18.78;39.99;102706.81;5128836;28;20040;-33
2022/01/17 05:04:07;;;;;;;0.30;0.30;;;;;;;18.77;40.40;102703.22;5117199;27;20039;-33
2022/01/17 05:06:33;;;;;;;0.20;0.20;;;;;;;18.78;40.19;102704.94;5122767;28;20050;-32
2022/01/17 05:09:02;;;;;;;0.30;0.30;;;;;;;18.77;40.37;102711.50;5115248;27;20043;-32
2022/01/17 05:11:30;;;;;;;0.20;0.20;;;;;;;18.78;40.45;102715.97;5115984;27;20043;-32
2022/01/17 05:13:55;;;;;;;0.20;0.20;;;;;;;18.78;40.34;102706.81;5117359;27;20049;-32
2022/01/17 05:16:22;;;;;;;0.20;0.20;;;;;;;18.77;40.13;102716.19;5115816;27;20055;-33
2022/01/17 05:21:26;;;;;;;0.20;0.20;;;;;;;18.79;40.30;102727.84;5167152;27;20538;-33
2022/01/17 05:23:52;;;;;;;0.30;0.30;;;;;;;18.78;40.32;102738.06;5142334;27;20039;-33
2022/01/17 05:26:18;;;;;;;0.20;0.20;;;;;;;18.79;40.28;102730.59;5148318;27;20502;-32
2022/01/17 05:28:43;;;;;;;0.30;0.30;;;;;;;18.78;40.29;102732.53;5141750;27;20047;-33
2022/01/17 05:31:09;;;;;;;0.20;0.20;;;;;;;18.78;40.22;102742.69;5140890;27;20045;-34
2022/01/17 05:33:35;;;;;;;0.20;0.20;;;;;;;18.79;40.37;102745.25;5137333;27;20043;-33
2022/01/17 05:36:00;;;;;;;0.20;0.20;;;;;;;18.78;40.37;102751.84;5121929;27;20450;-36
2022/01/17 05:38:26;;;;;;;0.20;0.20;;;;;;;18.79;40.22;102752.69;5141298;27;20041;-36
2022/01/17 05:40:52;;;;;;;0.30;0.30;;;;;;;18.78;40.24;102757.38;5153300;27;20070;-34
2022/01/17 05:43:17;;;;;;;0.20;0.20;;;;;;;18.79;40.39;102747.16;5142457;27;20096;-33
2022/01/17 05:45:43;;;;;;;0.20;0.20;;;;;;;18.79;40.54;102747.16;5145203;27;20095;-33
2022/01/17 05:48:09;;;;;;;0.22;0.22;;;;;;;18.79;40.29;102749.94;5137279;27;20039;-32
2022/01/17 05:50:34;;;;;;;0.20;0.20;;;;;;;18.78;40.20;102743.56;5145390;27;20043;-32
2022/01/17 05:53:00;;;;;;;0.30;0.30;;;;;;;18.79;40.33;102733.38;5141490;27;20043;-33
2022/01/17 05:55:26;;;;;;;0.20;0.20;;;;;;;18.79;40.37;102727.84;5145747;27;20050;-32
2022/01/17 05:57:51;;;;;;;0.20;0.20;;;;;;;18.80;40.26;102729.53;5146723;27;20050;-33
2022/01/17 06:00:17;;;;;;;0.30;0.30;;;;;;;18.77;40.24;102718.94;5142104;27;20054;-38
2022/01/17 06:02:43;;;;;;;0.30;0.30;;;;;;;18.77;40.27;102719.78;5141632;27;20422;-33
2022/01/17 06:05:09;;;;;;;0.20;0.20;;;;;;;18.78;40.24;102727.00;5134904;27;20043;-33
2022/01/17 06:07:34;;;;;;;0.20;0.20;;;;;;;18.78;40.28;102728.91;5144403;27;20049;-35
2022/01/17 06:10:00;;;;;;;0.22;0.22;;;;;;;18.79;40.48;102733.38;5146455;27;20046;-35
2022/01/17 06:12:26;;;;;;;0.20;0.20;;;;;;;18.78;40.20;102737.19;5151723;27;20039;-32
2022/01/17 06:14:51;;;;;;;0.20;0.20;;;;;;;18.79;40.19;102728.69;5142270;27;20049;-33
2022/01/17 06:17:17;;;;;;;0.20;0.20;;;;;;;18.79;40.35;102741.66;5142779;27;20111;-33
2022/01/17 06:19:43;;;;;;;0.30;0.30;;;;;;;18.79;40.37;102745.25;5130192;27;20039;-33
2022/01/17 06:22:10;;;;;;;0.28;0.28;;;;;;;18.79;40.30;102745.25;5125125;27;20047;-34
2022/01/17 06:24:35;;;;;;;0.20;0.20;;;;;;;18.80;40.44;102740.56;5124740;27;20393;-34
2022/01/17 06:27:02;;;;;;;0.30;0.30;;;;;;;18.80;40.29;102735.03;5126984;27;20115;-32
2022/01/17 06:29:28;;;;;;;0.28;0.28;;;;;;;18.80;40.27;102748.84;5106561;28;20047;-33
2022/01/17 06:31:54;;;;;;;0.20;0.20;;;;;;;18.80;40.41;102751.59;5098618;28;20088;-33
2022/01/17 06:34:32;;;;;;;0.20;0.20;;;;;;;18.79;40.31;102761.81;5110353;28;20079;-36
2022/01/17 06:36:57;;;;;;;0.30;0.30;;;;;;;18.79;40.36;102752.69;5112470;28;20055;-33
2022/01/17 06:39:23;;;;;;;0.30;0.30;;;;;;;18.78;40.25;102750.97;5110859;28;20227;-36
2022/01/17 06:41:50;;;;;;;0.20;0.20;;;;;;;18.79;40.30;102755.44;5109816;28;20039;-35
2022/01/17 06:44:16;;;;;;;0.25;0.25;;;;;;;18.78;40.55;102740.81;5092813;28;20054;-34
2022/01/17 06:46:42;;;;;;;0.30;0.30;;;;;;;18.78;40.30;102746.34;5113898;28;20043;-35
2022/01/17 06:49:08;;;;;;;0.20;0.20;;;;;;;18.79;40.41;102750.78;5117894;28;20084;-34
2022/01/17 06:51:35;;;;;;;0.20;0.20;;;;;;;18.79;40.49;102744.41;5110727;28;20122;-34
2022/01/17 06:54:00;;;;;;;0.20;0.20;;;;;;;18.78;40.19;102738.06;5087559;28;21072;-36
2022/01/17 06:56:26;;;;;;;0.30;0.30;;;;;;;18.78;40.49;102731.66;5093266;28;20042;-34
2022/01/17 06:58:52;;;;;;;0.20;0.20;;;;;;;18.80;40.23;102737.81;5086387;28;20067;-34
2022/01/17 07:01:20;;;;;;;0.30;0.30;;;;;;;18.79;40.57;102742.47;5086967;28;20103;-36
2022/01/17 07:03:46;;;;;;;0.20;0.20;;;;;;;18.80;40.40;102746.09;5099844;28;20277;-40
2022/01/17 07:06:12;;;;;;;0.20;0.20;;;;;;;18.79;40.36;102761.81;5091968;28;20386;-34
2022/01/17 07:08:38;;;;;;;0.30;0.30;;;;;;;18.81;40.39;102767.09;5104260;28;20046;-35
2022/01/17 07:11:04;;;;;;;0.30;0.30;;;;;;;18.80;40.31;102782.81;5102975;28;20403;-35
2022/01/17 07:13:30;;;;;;;0.20;0.20;;;;;;;18.85;40.35;102806.09;5102664;28;20480;-32
2022/01/17 07:15:55;;;;;;;0.20;0.20;;;;;;;18.87;40.24;102792.91;5102815;28;20040;-33
2022/01/17 07:18:21;;;;;;;0.20;0.20;;;;;;;18.86;40.32;102791.22;5084985;28;20046;-34
2022/01/17 07:20:47;;;;;;;0.30;0.30;;;;;;;18.86;40.42;102774.66;5104458;28;20043;-33
2022/01/17 07:23:13;;;;;;;0.30;0.30;;;;;;;18.86;40.27;102760.88;5080782;28;20466;-35
2022/01/17 07:25:39;;;;;;;0.30;0.30;;;;;;;18.86;40.17;102752.56;5105750;28;21235;-34
2022/01/17 07:28:06;;;;;;;0.30;0.30;;;;;;;18.87;40.32;102746.84;5108233;28;20414;-34
2022/01/17 07:30:32;;;;;;;0.20;0.20;;;;;;;18.87;40.41;102738.56;5086085;28;20059;-37
2022/01/17 07:32:57;;;;;;;0.20;0.20;;;;;;;18.89;40.21;102733.63;5105384;28;20039;-33
2022/01/17 07:35:23;;;;;;;0.30;0.30;;;;;;;18.89;40.30;102739.16;5102492;28;20084;-35
2022/01/17 07:37:49;;;;;;;0.20;0.20;;;;;;;18.90;40.21;102749.09;5097980;28;20550;-34
2022/01/17 07:40:14;;;;;;;0.20;0.20;;;;;;;18.91;40.24;102745.31;5098608;28;20047;-36
2022/01/17 07:42:40;;;;;;;0.20;0.20;;;;;;;18.93;40.12;102745.06;5105304;28;20169;-33
2022/01/17 07:45:12;;;;;;;;;;;;;;;18.95;40.25;102745.66;5099183;28;20153;-35
2022/01/17 07:47:42;;;;;;;0.22;0.22;;;;;;;18.94;40.27;102744.81;5084434;28;19926;-33
2022/01/17 07:50:12;;;;;;;0.20;0.20;;;;;;;18.96;40.06;102741.81;5077477;28;20297;-33
2022/01/17 07:52:38;;;;;;;0.20;0.20;;;;;;;18.96;40.18;102748.19;5082714;28;20047;-36
2022/01/17 07:55:04;;;;;;;0.20;0.20;;;;;;;18.98;40.21;102743.25;5101338;28;20048;-37
2022/01/17 07:57:30;;;;;;;0.20;0.20;;;;;;;18.99;40.20;102750.47;5089406;28;20082;-35
2022/01/17 07:59:55;;;;;;;0.20;0.20;;;;;;;18.99;40.21;102758.75;5059409;28;20052;-38
2022/01/17 08:02:21;;;;;;;0.20;0.20;;;;;;;19.01;39.97;102766.81;5069201;28;20497;-36
2022/01/17 08:04:47;;;;;;;0.30;0.30;;;;;;;19.01;40.00;102775.94;5090471;28;20568;-34
2022/01/17 08:07:15;;;;;;;0.30;0.30;;;;;;;19.04;40.12;102778.22;5093183;28;20481;-42
2022/01/17 08:09:41;;;;;;;0.20;0.20;;;;;;;19.05;40.17;102779.91;5072319;28;20087;-34
2022/01/17 08:12:08;;;;;;;0.30;0.30;;;;;;;19.06;39.95;102791.78;5093852;28;20052;-35
2022/01/17 08:14:35;;;;;;;0.20;0.20;;;;;;;19.07;40.05;102800.91;5080972;28;20300;-34
2022/01/17 08:17:01;;;;;;;0.25;0.25;;;;;;;19.07;40.03;102804.50;5089319;28;21303;-36
2022/01/17 08:19:27;;;;;;;0.20;0.20;;;;;;;19.08;40.07;102802.59;5062301;28;20756;-36
2022/01/17 08:22:00;;;;;;;0.20;0.20;;;;;;;19.10;40.09;102800.44;5093430;28;20515;-33
2022/01/17 08:24:26;;;;;;;0.20;0.20;;;;;;;19.11;40.00;102810.41;5095941;28;20049;-34
2022/01/17 08:26:52;;;;;;;0.28;0.28;;;;;;;19.11;39.98;102804.91;5100087;28;20392;-34
2022/01/17 08:29:18;;;;;;;0.20;0.20;;;;;;;19.10;39.88;102817.88;5098031;28;20051;-35
2022/01/17 08:31:46;;;;;;;0.20;0.20;;;;;;;19.10;39.86;102817.03;5082988;28;20061;-33
2022/01/17 08:34:13;;;;;;;0.20;0.20;;;;;;;19.10;40.09;102822.53;5100151;28;20052;-34
2022/01/17 08:36:39;;;;;;;0.20;0.20;;;;;;;19.01;39.40;102817.34;5095342;28;20048;-35
2022/01/17 08:39:06;;;;;;;0.30;0.30;;;;;;;19.08;39.91;102810.88;5079786;28;20473;-35
2022/01/17 08:41:32;;;;;;;0.20;0.20;;;;;;;19.09;39.81;102805.13;5098322;28;20143;-34
2022/01/17 08:43:58;;;;;;;0.20;0.20;;;;;;;19.10;39.79;102815.09;5094125;28;20047;-36
2022/01/17 08:46:24;;;;;;;0.30;0.30;;;;;;;19.09;39.91;102809.81;5101693;28;20044;-40
2022/01/17 08:48:51;;;;;;;0.28;0.28;;;;;;;19.07;39.94;102804.50;5094645;28;20096;-35
2022/01/17 08:51:17;;;;;;;0.30;0.30;;;;;;;19.11;40.13;102810.41;5103186;28;20044;-34
2022/01/17 08:53:44;;;;;;;0.28;0.28;;;;;;;19.09;39.77;102815.34;5091991;28;20531;-37
2022/01/17 08:56:10;;;;;;;0.20;0.20;;;;;;;19.09;39.99;102813.41;5096279;28;20043;-36
2022/01/17 08:58:36;;;;;;;0.28;0.28;;;;;;;19.10;39.79;102820.63;5100931;28;20046;-42
2022/01/17 09:01:02;;;;;;;0.20;0.20;;;;;;;19.12;40.03;102818.44;5100629;28;20043;-34
2022/01/17 09:03:28;;;;;;;0.25;0.25;;;;;;;19.10;39.88;102812.34;5096757;28;20115;-40
2022/01/17 09:05:54;;;;;;;0.28;0.28;;;;;;;19.12;40.05;102803.81;5087587;28;20608;-39
2022/01/17 09:08:21;;;;;;;0.20;0.20;;;;;;;19.12;39.74;102793.59;5093314;28;20064;-38
2022/01/17 09:10:47;;;;;;;0.30;0.30;;;;;;;19.14;39.96;102785.09;5095318;28;20358;-42
2022/01/17 09:13:12;;;;;;;0.30;0.30;;;;;;;19.38;39.82;102797.03;5071559;28;20097;-33
2022/01/17 09:15:38;;;;;;;0.30;0.30;;;;;;;19.42;39.55;102798.25;5097446;28;20536;-33
2022/01/17 09:18:05;;;;;;;0.30;0.30;;;;;;;19.47;39.46;102812.19;5082640;28;20540;-32
2022/01/17 09:20:34;;;;;;;0.30;0.30;;;;;;;19.53;39.73;102808.50;5096923;28;20052;-36
2022/01/17 09:23:02;;;;;;;0.30;0.30;;;;;;;19.51;39.64;102821.69;5098257;28;20161;-34
2022/01/17 09:25:27;;;;;;;0.30;0.30;;;;;;;19.48;39.79;102833.25;5091012;28;20046;-33
2022/01/17 09:27:53;;;;;;;0.30;0.30;;;;;;;19.46;39.56;102825.16;5086499;28;20036;-33
2022/01/17 09:30:19;;;;;;;0.20;0.20;;;;;;;19.44;39.88;102829.25;5081424;28;20812;-38
2022/01/17 09:32:46;;;;;;;0.20;0.20;;;;;;;19.43;39.91;102839.47;5098445;28;20036;-33
2022/01/17 09:35:11;;;;;;;0.40;0.40;;;;;;;19.43;39.88;102836.72;5096330;28;20043;-34
2022/01/17 09:37:38;;;;;;;0.20;0.20;;;;;;;19.44;39.80;102854.97;5078402;28;20047;-35
2022/01/17 09:40:05;;;;;;;0.20;0.20;;;;;;;19.43;39.62;102864.34;5090398;28;20124;-32
2022/01/17 09:42:35;;;;;;;0.20;0.20;;;;;;;19.46;39.64;102871.31;5092011;28;20056;-37
2022/01/17 09:45:03;;;;;;;0.20;0.20;;;;;;;19.44;39.66;102885.38;5081123;28;20344;-31
2022/01/17 09:47:29;;;;;;;0.20;0.20;;;;;;;19.45;39.78;102895.34;5088438;28;20047;-33
2022/01/17 09:49:56;;;;;;;0.30;0.30;;;;;;;19.46;39.76;102888.72;5100275;28;20062;-33
2022/01/17 09:52:37;;;;;;;0.30;0.30;;;;;;;19.47;39.72;102871.09;5098211;28;20039;-36
2022/01/17 09:55:09;;;;;;;0.20;0.20;;;;;;;19.47;39.57;102871.09;5102167;28;20039;-34
2022/01/17 09:57:42;;;;;;;0.30;0.30;;;;;;;19.48;39.54;102888.50;5097801;28;20081;-34
2022/01/17 10:00:09;;;;;;;0.30;0.30;;;;;;;19.49;39.73;102879.13;5093776;28;20051;-35
2022/01/17 10:02:35;;;;;;;0.20;0.20;;;;;;;19.49;39.47;102857.84;5065890;28;20039;-37
2022/01/17 10:05:05;;;;;;;0.30;0.30;;;;;;;19.50;39.63;102881.66;5102351;28;20122;-35
2022/01/17 10:07:51;;;;;;;0.20;0.20;;;;;;;19.51;39.64;102865.91;5089450;28;20488;-36
2022/01/17 10:10:33;;;;;;;0.20;0.20;;;;;;;19.52;39.56;102851.88;5075841;28;20044;-36
2022/01/17 10:13:24;;;;;;;0.20;0.20;;;;;;;19.51;39.54;102871.44;5089033;28;20048;-32
2022/01/17 10:16:09;;;;;;;0.30;0.30;;;;;;;19.52;39.45;102871.22;5070634;28;20058;-35
2022/01/17 10:21:28;;;;;;;0.20;0.20;;;;;;;19.54;39.77;102885.63;5154470;27;20513;-35
2022/01/17 10:24:20;;;;;;;;;;;;;;;19.54;39.67;102882.84;5114295;27;20053;-34
2022/01/17 10:27:39;;;;;;;0.20;0.20;;;;;;;19.54;39.60;102882.84;5122414;27;20409;-33
2022/01/17 10:35:23;;;;;;;0.20;0.20;;;;;;;19.53;39.39;102895.00;5116796;27;20047;-36
2022/01/17 10:38:09;;;;;;;0.20;0.20;;;;;;;19.53;39.69;102889.47;5094691;27;20057;-32
2022/01/17 10:40:42;;;;;;;0.28;0.28;;;;;;;19.52;39.52;102889.72;5110268;27;20053;-36
2022/01/17 10:43:34;;;;;;;0.20;0.20;;;;;;;19.52;39.39;102892.47;5108225;27;20046;-35
2022/01/17 10:46:04;;;;;;;0.20;0.20;;;;;;;19.50;39.73;102889.94;5114976;27;20050;-36
2022/01/17 10:48:34;;;;;;;0.28;0.28;;;;;;;19.51;39.44;102880.56;5111744;27;20488;-37
2022/01/17 10:51:01;;;;;;;0.20;0.20;;;;;;;19.51;39.61;102888.84;5111801;27;20111;-33
2022/01/17 10:53:26;;;;;;;0.20;0.20;;;;;;;19.50;39.45;102886.34;5131364;27;20059;-37
2022/01/17 10:55:54;;;;;;;0.25;0.25;;;;;;;19.49;39.74;102885.50;5133424;27;20474;-34
2022/01/17 10:58:24;;;;;;;0.20;0.20;;;;;;;19.50;39.45;102898.22;5117699;27;20039;-32
2022/01/17 11:00:53;;;;;;;0.20;0.20;;;;;;;19.49;39.74;102907.59;5118146;27;20124;-32
2022/01/17 11:03:22;;;;;;;0.20;0.20;;;;;;;19.48;39.56;102903.16;5097487;27;20088;-34
2022/01/17 11:05:52;;;;;;;0.20;0.20;;;;;;;19.48;39.57;102908.69;5136750;27;20047;-33
2022/01/17 11:08:19;;;;;;;0.30;0.30;;;;;;;19.48;39.93;102916.13;5134351;27;20042;-37
2022/01/17 11:10:47;;;;;;;0.30;0.30;;;;;;;19.60;40.13;102910.63;5130115;27;20380;-34
2022/01/17 11:13:15;;;;;;;0.20;0.20;;;;;;;19.60;40.07;102925.28;5132079;27;20047;-36
2022/01/17 11:15:44;;;;;;;;;;;;;;;19.57;40.14;102924.94;5137292;27;20772;-32
2022/01/17 11:18:17;;;;;;;0.20;0.20;;;;;;;19.54;39.92;102918.78;5134502;27;19927;-36
2022/01/17 11:20:43;;;;;;;0.20;0.20;;;;;;;19.55;40.09;102919.63;5141251;27;20053;-31
2022/01/17 11:23:09;;;;;;;0.20;0.20;;;;;;;19.54;39.94;102913.25;5135694;27;20043;-34
2022/01/17 11:25:37;;;;;;;0.20;0.20;;;;;;;19.64;40.78;102904.41;5116557;27;20039;-35
2022/01/17 11:28:04;;;;;;;0.20;0.20;;;;;;;19.66;40.38;102902.28;5120008;27;20042;-34
2022/01/17 11:30:34;;;;;;;0.20;0.20;;;;;;;19.65;40.23;102899.75;5123312;27;20047;-35
2022/01/17 11:33:04;;;;;;;0.25;0.25;;;;;;;19.62;40.21;102895.53;5117304;27;20051;-35
2022/01/17 11:35:31;;;;;;;0.20;0.20;;;;;;;19.62;40.47;102883.66;5131268;27;20055;-33
2022/01/17 11:37:59;;;;;;;0.20;0.20;;;;;;;19.61;40.17;102880.03;5121269;27;20035;-33
2022/01/17 11:40:31;;;;;;;0.20;0.20;;;;;;;19.63;40.14;102891.69;5133324;27;20374;-33
2022/01/17 11:42:59;;;;;;;0.20;0.20;;;;;;;19.62;40.13;102889.16;5084783;28;20050;-38
2022/01/17 11:48:06;;;;;;;0.20;0.20;;;;;;;19.64;40.26;102920.16;5147214;27;20459;-38
2022/01/17 11:50:37;;;;;;;0.20;0.20;;;;;;;19.64;40.18;102925.69;5133537;27;20544;-32